Time;durP1;ratioP1;P1;durP2;ratioP2;P2;SDS_P1;SDS_P2;PMS_P1;PMS_P2;Temp;Humidity;BMP_temperature;BMP_pressure;BME280_temperature;BME280_humidity;BME280_pressure;Samples;Min_cycle;Max_cycle;Signal;HPM_P1;HPM_P2
2022/06/09 00:01:53;;;;;;;;;;;;;;;;;;5059162;28;20287;-85
2022/06/09 00:04:19;;;;;;;;;;;;;;;;;;5044491;28;19924;-83
2022/06/09 00:06:46;;;;;;;;;;;;;;;;;;5043854;28;19932;-83
2022/06/09 00:09:12;;;;;;;;;;;;;;;;;;5063934;28;20295;-80
2022/06/09 00:11:38;;;;;;;;;;;;;;;;;;5045045;28;19924;-84
2022/06/09 00:14:04;;;;;;;;;;;;;;;;;;5040974;28;20447;-84
2022/06/09 00:16:30;;;;;;;;;;;;;;;;;;5046171;28;19924;-84
2022/06/09 00:18:56;;;;;;;;;;;;;;;;;;5061857;28;19931;-84
2022/06/09 00:21:23;;;;;;;;;;;;;;;;;;5042949;28;19978;-84
2022/06/09 00:23:48;;;;;;;;;;;;;;;;;;5063762;28;19997;-85
2022/06/09 00:26:14;;;;;;;;;;;;;;;;;;5040308;28;20368;-85
2022/06/09 00:28:40;;;;;;;;;;;;;;;;;;5036635;28;20368;-85
2022/06/09 00:31:06;;;;;;;;;;;;;;;;;;5062114;28;20295;-86
2022/06/09 00:33:32;;;;;;;;;;;;;;;;;;5060388;28;20423;-86
2022/06/09 00:35:58;;;;;;;;;;;;;;;;;;5063996;28;19925;-85
2022/06/09 00:38:24;;;;;;;;;;;;;;;;;;5063426;28;19969;-84
2022/06/09 00:40:50;;;;;;;;;;;;;;;;;;5047226;28;19933;-85
2022/06/09 00:43:16;;;;;;;;;;;;;;;;;;5063658;28;19931;-84
2022/06/09 00:45:43;;;;;;;;;;;;;;;;;;5037567;28;19929;-84
2022/06/09 00:48:09;;;;;;;;;;;;;;;;;;5065042;28;20007;-84
2022/06/09 00:50:35;;;;;;;;;;;;;;;;;;5063227;28;20315;-85
2022/06/09 00:53:01;;;;;;;;;;;;;;;;;;5060058;28;19932;-83
2022/06/09 00:55:27;;;;;;;;;;;;;;;;;;5038687;28;19928;-82
2022/06/09 00:57:53;;;;;;;;;;;;;;;;;;5065065;28;20016;-83
2022/06/09 01:00:19;;;;;;;;;;;;;;;;;;5039603;28;19928;-83
2022/06/09 01:02:45;;;;;;;;;;;;;;;;;;5042374;28;20589;-84
2022/06/09 01:05:11;;;;;;;;;;;;;;;;;;5061485;28;20023;-84
2022/06/09 01:07:37;;;;;;;;;;;;;;;;;;5041567;28;19924;-85
2022/06/09 01:10:03;;;;;;;;;;;;;;;;;;5048537;28;19924;-84
2022/06/09 01:12:29;;;;;;;;;;;;;;;;;;5045858;28;19976;-84
2022/06/09 01:14:55;;;;;;;;;;;;;;;;;;5064362;28;19929;-84
2022/06/09 01:17:21;;;;;;;;;;;;;;;;;;5046861;28;19925;-84
2022/06/09 01:19:47;;;;;;;;;;;;;;;;;;5059552;28;19924;-83
2022/06/09 01:22:13;;;;;;;;;;;;;;;;;;5061968;28;19925;-84
2022/06/09 01:24:39;;;;;;;;;;;;;;;;;;5040571;28;19978;-85
2022/06/09 01:27:05;;;;;;;;;;;;;;;;;;5041887;28;19935;-86
2022/06/09 01:29:30;;;;;;;;;;;;;;;;;;5061643;28;19928;-84
2022/06/09 01:31:58;;;;;;;;;;;;;;;;;;5062377;28;19925;-85
2022/06/09 01:34:24;;;;;;;;;;;;;;;;;;5046703;28;20003;-85
2022/06/09 01:36:50;;;;;;;;;;;;;;;;;;5060611;28;20096;-84
2022/06/09 01:39:16;;;;;;;;;;;;;;;;;;5063452;28;19943;-84
2022/06/09 01:41:42;;;;;;;;;;;;;;;;;;5041932;28;20249;-84
2022/06/09 01:44:08;;;;;;;;;;;;;;;;;;5042873;28;20330;-84
2022/06/09 01:46:34;;;;;;;;;;;;;;;;;;5067157;28;20346;-84
2022/06/09 01:49:00;;;;;;;;;;;;;;;;;;5051333;28;20378;-84
2022/06/09 01:51:26;;;;;;;;;;;;;;;;;;5050806;28;19929;-84
2022/06/09 01:53:52;;;;;;;;;;;;;;;;;;5045724;28;19962;-84
2022/06/09 01:56:19;;;;;;;;;;;;;;;;;;5062925;28;19928;-83
2022/06/09 01:58:45;;;;;;;;;;;;;;;;;;5065275;28;21313;-84
2022/06/09 02:01:11;;;;;;;;;;;;;;;;;;5067266;28;20391;-83
2022/06/09 02:03:36;;;;;;;;;;;;;;;;;;5063856;28;19931;-85
2022/06/09 02:06:02;;;;;;;;;;;;;;;;;;5068511;28;19935;-85
2022/06/09 02:08:29;;;;;;;;;;;;;;;;;;5065122;28;20288;-85
2022/06/09 02:10:55;;;;;;;;;;;;;;;;;;5049394;28;19932;-84
2022/06/09 02:13:21;;;;;;;;;;;;;;;;;;5065602;28;20059;-84
2022/06/09 02:15:47;;;;;;;;;;;;;;;;;;5067022;28;19956;-84
2022/06/09 02:18:12;;;;;;;;;;;;;;;;;;5066122;28;19924;-84
2022/06/09 02:20:42;;;;;;;;;;;;;;;;;;5064188;28;19955;-84
2022/06/09 02:23:07;;;;;;;;;;;;;;;;;;5040913;28;19932;-84
2022/06/09 02:25:33;;;;;;;;;;;;;;;;;;5064339;28;20271;-85
2022/06/09 02:27:59;;;;;;;;;;;;;;;;;;5049194;28;20397;-84
2022/06/09 02:30:25;;;;;;;;;;;;;;;;;;5065573;28;19960;-86
2022/06/09 02:32:51;;;;;;;;;;;;;;;;;;5065524;28;20295;-85
2022/06/09 02:35:17;;;;;;;;;;;;;;;;;;5064035;28;20405;-83
2022/06/09 02:37:43;;;;;;;;;;;;;;;;;;5068189;28;19928;-84
2022/06/09 02:40:09;;;;;;;;;;;;;;;;;;5045274;28;20025;-84
2022/06/09 02:42:35;;;;;;;;;;;;;;;;;;5067390;28;19934;-84
2022/06/09 02:45:03;;;;;;;;;;;;;;;;;;5047056;28;20023;-83
2022/06/09 02:47:28;;;;;;;;;;;;;;;;;;5049993;28;19936;-84
2022/06/09 02:49:55;;;;;;;;;;;;;;;;;;5043921;28;19929;-84
2022/06/09 02:52:21;;;;;;;;;;;;;;;;;;5048806;28;19925;-83
2022/06/09 02:54:46;;;;;;;;;;;;;;;;;;5050585;28;19946;-83
2022/06/09 02:57:12;;;;;;;;;;;;;;;;;;5065108;28;19928;-82
2022/06/09 02:59:38;;;;;;;;;;;;;;;;;;5044861;28;19936;-82
2022/06/09 03:02:04;;;;;;;;;;;;;;;;;;5050750;28;20037;-83
2022/06/09 03:04:30;;;;;;;;;;;;;;;;;;5064265;28;19928;-83
2022/06/09 03:06:56;;;;;;;;;;;;;;;;;;5067121;28;19925;-84
2022/06/09 03:09:22;;;;;;;;;;;;;;;;;;5043740;28;19929;-84
2022/06/09 03:11:49;;;;;;;;;;;;;;;;;;5078176;28;19931;-83
2022/06/09 03:14:14;;;;;;;;;;;;;;;;;;5045801;28;19928;-84
2022/06/09 03:16:40;;;;;;;;;;;;;;;;;;5043380;28;19932;-83
2022/06/09 03:19:06;;;;;;;;;;;;;;;;;;5066465;28;19924;-83
2022/06/09 03:21:32;;;;;;;;;;;;;;;;;;5048236;28;19932;-83
2022/06/09 03:23:59;;;;;;;;;;;;;;;;;;5065933;28;19929;-83
2022/06/09 03:26:25;;;;;;;;;;;;;;;;;;5040332;28;19929;-84
2022/06/09 03:28:51;;;;;;;;;;;;;;;;;;5065278;28;19986;-83
2022/06/09 03:31:17;;;;;;;;;;;;;;;;;;5048012;28;19925;-83
2022/06/09 03:33:43;;;;;;;;;;;;;;;;;;5046884;28;19932;-83
2022/06/09 03:36:09;;;;;;;;;;;;;;;;;;5047859;28;19924;-85
2022/06/09 03:38:35;;;;;;;;;;;;;;;;;;5044306;28;20011;-84
2022/06/09 03:41:01;;;;;;;;;;;;;;;;;;5066624;28;19924;-83
2022/06/09 03:43:27;;;;;;;;;;;;;;;;;;5063114;28;19928;-83
2022/06/09 03:45:53;;;;;;;;;;;;;;;;;;5061718;28;20023;-83
2022/06/09 03:48:19;;;;;;;;;;;;;;;;;;5066091;28;20394;-83
2022/06/09 03:50:45;;;;;;;;;;;;;;;;;;5062424;28;19940;-83
2022/06/09 03:53:11;;;;;;;;;;;;;;;;;;5045791;28;19924;-83
2022/06/09 03:55:37;;;;;;;;;;;;;;;;;;5046310;28;20561;-83
2022/06/09 03:58:02;;;;;;;;;;;;;;;;;;5062852;28;19928;-82
2022/06/09 04:00:28;;;;;;;;;;;;;;;;;;5047373;28;20372;-83
2022/06/09 04:02:54;;;;;;;;;;;;;;;;;;5047629;28;19982;-83
2022/06/09 04:05:20;;;;;;;;;;;;;;;;;;5063403;28;20341;-83
2022/06/09 04:07:46;;;;;;;;;;;;;;;;;;5047201;28;20022;-83
2022/06/09 04:10:12;;;;;;;;;;;;;;;;;;5049021;28;20011;-82
2022/06/09 04:12:38;;;;;;;;;;;;;;;;;;5061485;28;20007;-84
2022/06/09 04:15:05;;;;;;;;;;;;;;;;;;5043646;28;19932;-83
2022/06/09 04:17:31;;;;;;;;;;;;;;;;;;5041681;28;19925;-83
2022/06/09 04:19:57;;;;;;;;;;;;;;;;;;5038825;28;20405;-84
2022/06/09 04:22:23;;;;;;;;;;;;;;;;;;5042006;28;20359;-86
2022/06/09 04:24:49;;;;;;;;;;;;;;;;;;5062908;28;20343;-87
2022/06/09 04:27:15;;;;;;;;;;;;;;;;;;5064211;28;19924;-88
2022/06/09 04:29:41;;;;;;;;;;;;;;;;;;5045787;28;19925;-86
2022/06/09 04:32:07;;;;;;;;;;;;;;;;;;5047380;28;19924;-85
2022/06/09 04:34:32;;;;;;;;;;;;;;;;;;5054536;28;19925;-85
2022/06/09 04:36:58;;;;;;;;;;;;;;;;;;5060280;28;19925;-85
2022/06/09 04:39:24;;;;;;;;;;;;;;;;;;5065345;28;20077;-86
2022/06/09 04:41:50;;;;;;;;;;;;;;;;;;5047295;28;20402;-85
2022/06/09 04:44:16;;;;;;;;;;;;;;;;;;5046677;28;19924;-86
2022/06/09 04:46:42;;;;;;;;;;;;;;;;;;5047711;28;19924;-85
2022/06/09 04:49:08;;;;;;;;;;;;;;;;;;5064029;28;19979;-86
2022/06/09 04:51:34;;;;;;;;;;;;;;;;;;5064793;28;19929;-85
2022/06/09 04:54:00;;;;;;;;;;;;;;;;;;5041112;28;21497;-82
2022/06/09 04:56:26;;;;;;;;;;;;;;;;;;5059931;28;20015;-82
2022/06/09 04:58:52;;;;;;;;;;;;;;;;;;5044157;28;19978;-85
2022/06/09 05:01:18;;;;;;;;;;;;;;;;;;5062663;28;20029;-84
2022/06/09 05:03:44;;;;;;;;;;;;;;;;;;5038923;28;19928;-86
2022/06/09 05:06:10;;;;;;;;;;;;;;;;;;5043565;28;19940;-86
2022/06/09 05:08:36;;;;;;;;;;;;;;;;;;5062127;28;19925;-85
2022/06/09 05:11:02;;;;;;;;;;;;;;;;;;5065187;28;19975;-86
2022/06/09 05:13:28;;;;;;;;;;;;;;;;;;5059310;28;20451;-88
2022/06/09 05:15:54;;;;;;;;;;;;;;;;;;5062073;28;20005;-81
2022/06/09 05:18:20;;;;;;;;;;;;;;;;;;5066079;28;19924;-83
2022/06/09 05:20:46;;;;;;;;;;;;;;;;;;5049142;28;19924;-84
2022/06/09 05:23:12;;;;;;;;;;;;;;;;;;5043059;28;20027;-81
2022/06/09 05:25:38;;;;;;;;;;;;;;;;;;5070664;28;19925;-81
2022/06/09 05:28:04;;;;;;;;;;;;;;;;;;5066959;28;19924;-83
2022/06/09 05:30:30;;;;;;;;;;;;;;;;;;5054289;28;20027;-83
2022/06/09 05:32:56;;;;;;;;;;;;;;;;;;5054884;28;19925;-83
2022/06/09 05:35:22;;;;;;;;;;;;;;;;;;5070822;28;19932;-83
2022/06/09 05:46:02;;;;;;;;;;;;;;;;;;5059699;28;20066;-82
2022/06/09 05:48:28;;;;;;;;;;;;;;;;;;5041993;28;20037;-82
2022/06/09 05:50:54;;;;;;;;;;;;;;;;;;5072560;28;20390;-81
2022/06/09 05:53:20;;;;;;;;;;;;;;;;;;5074137;28;19924;-82
2022/06/09 05:55:46;;;;;;;;;;;;;;;;;;5050890;28;19972;-82
2022/06/09 05:58:12;;;;;;;;;;;;;;;;;;5057582;28;19928;-82
2022/06/09 06:00:38;;;;;;;;;;;;;;;;;;5050155;28;19924;-82
2022/06/09 06:03:04;;;;;;;;;;;;;;;;;;5062323;28;20315;-82
2022/06/09 06:08:15;;;;;;;;;;;;;;;;;;5054880;28;19971;-82
2022/06/09 06:10:41;;;;;;;;;;;;;;;;;;5055135;28;19925;-83
2022/06/09 06:13:07;;;;;;;;;;;;;;;;;;5042664;28;19925;-82
2022/06/09 06:15:33;;;;;;;;;;;;;;;;;;5064740;28;19925;-83
2022/06/09 06:18:02;;;;;;;;;;;;;;;;;;5069199;28;20023;-82
2022/06/09 06:20:28;;;;;;;;;;;;;;;;;;5063002;28;20012;-84
2022/06/09 06:22:55;;;;;;;;;;;;;;;;;;5054973;28;20336;-82
2022/06/09 06:25:21;;;;;;;;;;;;;;;;;;5051649;28;19921;-82
2022/06/09 06:27:47;;;;;;;;;;;;;;;;;;5045146;28;20330;-83
2022/06/09 06:30:13;;;;;;;;;;;;;;;;;;5060596;28;19925;-82
2022/06/09 06:32:39;;;;;;;;;;;;;;;;;;5073725;28;19925;-84
2022/06/09 06:35:05;;;;;;;;;;;;;;;;;;5040149;28;19987;-82
2022/06/09 06:37:31;;;;;;;;;;;;;;;;;;5062018;28;19935;-82
2022/06/09 06:39:57;;;;;;;;;;;;;;;;;;5045673;28;19925;-83
2022/06/09 06:42:23;;;;;;;;;;;;;;;;;;5053650;28;19981;-82
2022/06/09 06:44:49;;;;;;;;;;;;;;;;;;5037061;28;19951;-83
2022/06/09 06:47:15;;;;;;;;;;;;;;;;;;5060865;28;19928;-82
2022/06/09 06:49:41;;;;;;;;;;;;;;;;;;5068389;28;19924;-83
2022/06/09 06:52:07;;;;;;;;;;;;;;;;;;5072720;28;19928;-82
2022/06/09 06:54:32;;;;;;;;;;;;;;;;;;5059507;28;19974;-82
2022/06/09 06:56:58;;;;;;;;;;;;;;;;;;5074587;28;19928;-82
2022/06/09 06:59:24;;;;;;;;;;;;;;;;;;5067108;28;19929;-83
2022/06/09 07:01:50;;;;;;;;;;;;;;;;;;5057477;28;19925;-82
2022/06/09 07:04:16;;;;;;;;;;;;;;;;;;5059165;28;19970;-84
2022/06/09 07:06:42;;;;;;;;;;;;;;;;;;5054341;28;19924;-83
2022/06/09 07:09:08;;;;;;;;;;;;;;;;;;5065711;28;19924;-84
2022/06/09 07:11:34;;;;;;;;;;;;;;;;;;5059381;28;19931;-84
2022/06/09 07:14:00;;;;;;;;;;;;;;;;;;5070736;28;20010;-83
2022/06/09 07:16:26;;;;;;;;;;;;;;;;;;5054990;28;19924;-84
2022/06/09 07:18:52;;;;;;;;;;;;;;;;;;5056348;28;19932;-83
2022/06/09 07:21:18;;;;;;;;;;;;;;;;;;5047753;28;20000;-82
2022/06/09 07:23:45;;;;;;;;;;;;;;;;;;5058095;28;20081;-84
2022/06/09 07:26:11;;;;;;;;;;;;;;;;;;5058540;28;20279;-83
2022/06/09 07:28:37;;;;;;;;;;;;;;;;;;5070942;28;19924;-84
2022/06/09 07:31:03;;;;;;;;;;;;;;;;;;5051113;28;19938;-84
2022/06/09 07:33:29;;;;;;;;;;;;;;;;;;5057982;28;19928;-84
2022/06/09 07:35:56;;;;;;;;;;;;;;;;;;5067655;28;19935;-83
2022/06/09 07:38:22;;;;;;;;;;;;;;;;;;5061045;28;19924;-82
2022/06/09 07:40:47;;;;;;;;;;;;;;;;;;5068260;28;19928;-81
2022/06/09 07:43:13;;;;;;;;;;;;;;;;;;5067765;28;19928;-81
2022/06/09 07:45:39;;;;;;;;;;;;;;;;;;5072241;28;19931;-81
2022/06/09 07:48:05;;;;;;;;;;;;;;;;;;5054537;28;19925;-80
2022/06/09 07:50:31;;;;;;;;;;;;;;;;;;5070443;28;20370;-81
2022/06/09 07:52:57;;;;;;;;;;;;;;;;;;5056129;28;19925;-81
2022/06/09 07:55:24;;;;;;;;;;;;;;;;;;5082603;28;19924;-81
2022/06/09 07:57:50;;;;;;;;;;;;;;;;;;5056199;28;19995;-81
2022/06/09 08:00:16;;;;;;;;;;;;;;;;;;5071656;28;20359;-81
2022/06/09 08:02:43;;;;;;;;;;;;;;;;;;5039229;28;20359;-82
2022/06/09 08:05:09;;;;;;;;;;;;;;;;;;5038573;28;19970;-85
2022/06/09 08:07:35;;;;;;;;;;;;;;;;;;5071108;28;19935;-85
2022/06/09 08:10:01;;;;;;;;;;;;;;;;;;5072478;28;19928;-85
2022/06/09 08:12:27;;;;;;;;;;;;;;;;;;5066504;28;19935;-84
2022/06/09 08:14:53;;;;;;;;;;;;;;;;;;5041303;28;19924;-84
2022/06/09 08:17:22;;;;;;;;;;;;;;;;;;5054787;28;20408;-83
2022/06/09 08:19:48;;;;;;;;;;;;;;;;;;5055978;28;20374;-84
2022/06/09 08:22:14;;;;;;;;;;;;;;;;;;5067686;28;20027;-84
2022/06/09 08:24:40;;;;;;;;;;;;;;;;;;5038759;28;19947;-81
2022/06/09 08:27:06;;;;;;;;;;;;;;;;;;5063529;28;20375;-82
2022/06/09 08:29:32;;;;;;;;;;;;;;;;;;5065466;28;20447;-83
2022/06/09 08:31:58;;;;;;;;;;;;;;;;;;5060797;28;19972;-83
2022/06/09 08:34:24;;;;;;;;;;;;;;;;;;5055489;28;19924;-84
2022/06/09 08:36:50;;;;;;;;;;;;;;;;;;5059066;28;20294;-86
2022/06/09 08:39:16;;;;;;;;;;;;;;;;;;5055397;28;19976;-85
2022/06/09 08:41:42;;;;;;;;;;;;;;;;;;5044083;28;19928;-85
2022/06/09 08:44:08;;;;;;;;;;;;;;;;;;5068841;28;19928;-84
2022/06/09 08:46:34;;;;;;;;;;;;;;;;;;5064089;28;19924;-86
2022/06/09 08:49:00;;;;;;;;;;;;;;;;;;5058099;28;19928;-83
2022/06/09 08:51:25;;;;;;;;;;;;;;;;;;5055633;28;20046;-83
2022/06/09 08:53:51;;;;;;;;;;;;;;;;;;5058959;28;19944;-88
2022/06/09 08:56:17;;;;;;;;;;;;;;;;;;5057752;28;19924;-81
2022/06/09 08:58:43;;;;;;;;;;;;;;;;;;5064762;28;20391;-81
2022/06/09 09:01:09;;;;;;;;;;;;;;;;;;5058085;28;19951;-81
2022/06/09 09:03:35;;;;;;;;;;;;;;;;;;5064066;28;19932;-82
2022/06/09 09:06:04;;;;;;;;;;;;;;;;;;5074660;28;19924;-80
2022/06/09 09:08:30;;;;;;;;;;;;;;;;;;5067654;28;20018;-80
2022/06/09 09:10:56;;;;;;;;;;;;;;;;;;5042707;28;20019;-79
2022/06/09 09:13:22;;;;;;;;;;;;;;;;;;5065214;28;20322;-81
2022/06/09 09:15:48;;;;;;;;;;;;;;;;;;5072982;28;19924;-81
2022/06/09 09:18:13;;;;;;;;;;;;;;;;;;5085457;28;19935;-82
2022/06/09 09:20:39;;;;;;;;;;;;;;;;;;5059405;28;19947;-81
2022/06/09 09:23:05;;;;;;;;;;;;;;;;;;5059235;28;20360;-82
2022/06/09 09:25:31;;;;;;;;;;;;;;;;;;5055174;28;20317;-82
2022/06/09 09:27:57;;;;;;;;;;;;;;;;;;5070755;28;19947;-81
2022/06/09 09:30:23;;;;;;;;;;;;;;;;;;5059200;28;19932;-82
2022/06/09 09:32:49;;;;;;;;;;;;;;;;;;5065908;28;20279;-83
2022/06/09 09:35:15;;;;;;;;;;;;;;;;;;5058203;28;19928;-82
2022/06/09 09:37:44;;;;;;;;;;;;;;;;;;5068802;28;19924;-83
2022/06/09 09:40:10;;;;;;;;;;;;;;;;;;5054126;28;19924;-82
2022/06/09 09:42:37;;;;;;;;;;;;;;;;;;5054254;28;19936;-82
2022/06/09 09:45:03;;;;;;;;;;;;;;;;;;5038746;28;19924;-84
2022/06/09 09:47:29;;;;;;;;;;;;;;;;;;5071275;28;19935;-84
2022/06/09 09:49:55;;;;;;;;;;;;;;;;;;5054739;28;19928;-81
2022/06/09 09:52:21;;;;;;;;;;;;;;;;;;5054171;28;19932;-82
2022/06/09 09:54:47;;;;;;;;;;;;;;;;;;5072022;28;19931;-84
2022/06/09 09:57:13;;;;;;;;;;;;;;;;;;5072301;28;20344;-84
2022/06/09 09:59:39;;;;;;;;;;;;;;;;;;5059523;28;20399;-83
2022/06/09 10:10:22;;;;;;;;;;;;;;;;;;5066396;28;20057;-83
2022/06/09 10:12:48;;;;;;;;;;;;;;;;;;5055252;28;20408;-83
2022/06/09 10:15:14;;;;;;;;;;;;;;;;;;5065609;28;19935;-83
2022/06/09 10:17:41;;;;;;;;;;;;;;;;;;5056753;28;19925;-84
2022/06/09 10:20:07;;;;;;;;;;;;;;;;;;5075361;28;19963;-84
2022/06/09 10:22:33;;;;;;;;;;;;;;;;;;5060129;28;20268;-85
2022/06/09 10:24:59;;;;;;;;;;;;;;;;;;5064207;28;19932;-85
2022/06/09 10:27:25;;;;;;;;;;;;;;;;;;5059473;28;20391;-85
2022/06/09 10:29:51;;;;;;;;;;;;;;;;;;5051121;28;19924;-85
2022/06/09 10:32:16;;;;;;;;;;;;;;;;;;5046667;28;19931;-86
2022/06/09 10:34:42;;;;;;;;;;;;;;;;;;5045153;28;19959;-77
2022/06/09 10:37:09;;;;;;;;;;;;;;;;;;5069331;28;19928;-77
2022/06/09 10:39:35;;;;;;;;;;;;;;;;;;5066555;28;19975;-78
2022/06/09 10:42:00;;;;;;;;;;;;;;;;;;5077627;28;19972;-81
2022/06/09 10:44:26;;;;;;;;;;;;;;;;;;5055862;28;19924;-77
2022/06/09 10:55:14;;;;;;;;;;;;;;;;;;5050857;28;19924;-77
2022/06/09 10:55:14;;;;;;;;;;;;;;;;;;5058096;28;19925;-80
2022/06/09 10:57:40;;;;;;;;;;;;;;;;;;5057427;28;19958;-81
2022/06/09 11:00:08;;;;;;;;;;;;;;;;;;5056904;28;19925;-80
2022/06/09 11:02:34;;;;;;;;;;;;;;;;;;5057777;28;19932;-81
2022/06/09 11:05:01;;;;;;;;;;;;;;;;;;5059295;28;20372;-82
2022/06/09 11:07:27;;;;;;;;;;;;;;;;;;5058475;28;20346;-77
2022/06/09 11:09:53;;;;;;;;;;;;;;;;;;5083516;28;20364;-81
2022/06/09 11:12:19;;;;;;;;;;;;;;;;;;5071455;28;19977;-81
2022/06/09 11:14:45;;;;;;;;;;;;;;;;;;5052230;28;19928;-81
2022/06/09 11:17:10;;;;;;;;;;;;;;;;;;5071382;28;20379;-81
2022/06/09 11:19:36;;;;;;;;;;;;;;;;;;5079830;28;19924;-82
2022/06/09 11:22:02;;;;;;;;;;;;;;;;;;5067469;28;19924;-80
2022/06/09 11:24:28;;;;;;;;;;;;;;;;;;5067532;28;19928;-80
2022/06/09 11:26:54;;;;;;;;;;;;;;;;;;5069778;28;20256;-79
2022/06/09 11:29:20;;;;;;;;;;;;;;;;;;5064390;28;20240;-80
2022/06/09 11:31:46;;;;;;;;;;;;;;;;;;5038129;28;19932;-80
2022/06/09 11:34:12;;;;;;;;;;;;;;;;;;5061995;28;20004;-79
2022/06/09 11:36:38;;;;;;;;;;;;;;;;;;5062895;28;19924;-79
2022/06/09 11:39:04;;;;;;;;;;;;;;;;;;5063541;28;20415;-78
2022/06/09 11:41:30;;;;;;;;;;;;;;;;;;5067802;28;19924;-79
2022/06/09 11:43:56;;;;;;;;;;;;;;;;;;5057045;28;19924;-78
2022/06/09 11:46:22;;;;;;;;;;;;;;;;;;5069871;28;19928;-77
2022/06/09 11:48:48;;;;;;;;;;;;;;;;;;5065261;28;20022;-78
2022/06/09 11:51:14;;;;;;;;;;;;;;;;;;5053644;28;20399;-78
2022/06/09 11:53:40;;;;;;;;;;;;;;;;;;5054309;28;19929;-78
2022/06/09 11:56:08;;;;;;;;;;;;;;;;;;5058127;28;19976;-78
2022/06/09 11:58:34;;;;;;;;;;;;;;;;;;5064460;28;19924;-77
2022/06/09 12:01:00;;;;;;;;;;;;;;;;;;5072416;28;19924;-77
2022/06/09 12:03:26;;;;;;;;;;;;;;;;;;5071624;28;19924;-77
2022/06/09 12:05:52;;;;;;;;;;;;;;;;;;5076542;28;19936;-78
2022/06/09 12:08:18;;;;;;;;;;;;;;;;;;5070635;28;19935;-78
2022/06/09 12:10:47;;;;;;;;;;;;;;;;;;5070051;28;19928;-78
2022/06/09 12:13:13;;;;;;;;;;;;;;;;;;5055948;28;20318;-78
2022/06/09 12:15:38;;;;;;;;;;;;;;;;;;5058487;28;19924;-79
2022/06/09 12:18:08;;;;;;;;;;;;;;;;;;5058134;28;20244;-78
2022/06/09 12:20:34;;;;;;;;;;;;;;;;;;5061609;28;19932;-79
2022/06/09 12:23:00;;;;;;;;;;;;;;;;;;5071146;28;19924;-79
2022/06/09 12:25:26;;;;;;;;;;;;;;;;;;5069575;28;19924;-79
2022/06/09 12:27:52;;;;;;;;;;;;;;;;;;5072387;28;19930;-78
2022/06/09 12:30:18;;;;;;;;;;;;;;;;;;5072496;28;19928;-78
2022/06/09 12:32:44;;;;;;;;;;;;;;;;;;5068539;28;20284;-77
2022/06/09 12:35:10;;;;;;;;;;;;;;;;;;5054353;28;19925;-79
2022/06/09 12:37:36;;;;;;;;;;;;;;;;;;5055397;28;19939;-79
2022/06/09 12:40:02;;;;;;;;;;;;;;;;;;5072057;28;19990;-81
2022/06/09 12:42:28;;;;;;;;;;;;;;;;;;5064725;28;19924;-83
2022/06/09 12:44:54;;;;;;;;;;;;;;;;;;5049871;28;19924;-79
2022/06/09 12:47:21;;;;;;;;;;;;;;;;;;5066403;28;19935;-80
2022/06/09 12:49:47;;;;;;;;;;;;;;;;;;5055029;28;19947;-81
2022/06/09 12:52:13;;;;;;;;;;;;;;;;;;5037941;28;20419;-80
2022/06/09 12:54:40;;;;;;;;;;;;;;;;;;5070878;28;19930;-80
2022/06/09 12:57:06;;;;;;;;;;;;;;;;;;5052012;28;19928;-81
2022/06/09 12:59:32;;;;;;;;;;;;;;;;;;5085798;28;19924;-80
2022/06/09 13:01:58;;;;;;;;;;;;;;;;;;5064683;28;20375;-80
2022/06/09 13:04:25;;;;;;;;;;;;;;;;;;5078078;28;20417;-81
2022/06/09 13:06:51;;;;;;;;;;;;;;;;;;5049423;28;19981;-81
2022/06/09 13:09:17;;;;;;;;;;;;;;;;;;5062462;28;19928;-80
2022/06/09 13:14:28;;;;;;;;;;;;;;;;;;5070792;28;19954;-81
2022/06/09 13:16:54;;;;;;;;;;;;;;;;;;5053172;28;19924;-80
2022/06/09 13:19:20;;;;;;;;;;;;;;;;;;5073908;28;20007;-80
2022/06/09 13:21:46;;;;;;;;;;;;;;;;;;5070372;28;20291;-81
2022/06/09 13:24:12;;;;;;;;;;;;;;;;;;5064779;28;19924;-81
2022/06/09 13:26:38;;;;;;;;;;;;;;;;;;5054365;28;19932;-81
2022/06/09 13:29:04;;;;;;;;;;;;;;;;;;5058454;28;20399;-80
2022/06/09 13:31:30;;;;;;;;;;;;;;;;;;5053944;28;20355;-81
2022/06/09 13:33:56;;;;;;;;;;;;;;;;;;5053149;28;20359;-80
2022/06/09 13:36:21;;;;;;;;;;;;;;;;;;5068998;28;20385;-80
2022/06/09 13:38:47;;;;;;;;;;;;;;;;;;5054340;28;19935;-81
2022/06/09 13:41:13;;;;;;;;;;;;;;;;;;5066707;28;19932;-80
2022/06/09 13:43:39;;;;;;;;;;;;;;;;;;5067404;28;19924;-81
2022/06/09 13:46:05;;;;;;;;;;;;;;;;;;5072914;28;19986;-80
2022/06/09 13:48:31;;;;;;;;;;;;;;;;;;5073421;28;19924;-80
2022/06/09 13:50:57;;;;;;;;;;;;;;;;;;5062922;28;19931;-80
2022/06/09 13:53:23;;;;;;;;;;;;;;;;;;5071299;28;19931;-80
2022/06/09 13:55:49;;;;;;;;;;;;;;;;;;5058952;28;19925;-80
2022/06/09 13:58:15;;;;;;;;;;;;;;;;;;5052453;28;19967;-80
2022/06/09 14:00:41;;;;;;;;;;;;;;;;;;5075433;28;19932;-81
2022/06/09 14:03:07;;;;;;;;;;;;;;;;;;5057029;28;20391;-80
2022/06/09 14:05:33;;;;;;;;;;;;;;;;;;5069177;28;19928;-81
2022/06/09 14:07:59;;;;;;;;;;;;;;;;;;5071058;28;19931;-81
2022/06/09 14:10:25;;;;;;;;;;;;;;;;;;5054878;28;20144;-80
2022/06/09 14:12:51;;;;;;;;;;;;;;;;;;5065555;28;20286;-80
2022/06/09 14:15:16;;;;;;;;;;;;;;;;;;5064090;28;20310;-80
2022/06/09 14:17:42;;;;;;;;;;;;;;;;;;5058244;28;19928;-81
2022/06/09 14:20:08;;;;;;;;;;;;;;;;;;5076946;28;19947;-81
2022/06/09 14:22:34;;;;;;;;;;;;;;;;;;5062927;28;19924;-81
2022/06/09 14:25:00;;;;;;;;;;;;;;;;;;5058015;28;19970;-81
2022/06/09 14:27:26;;;;;;;;;;;;;;;;;;5057390;28;19931;-81
2022/06/09 14:29:52;;;;;;;;;;;;;;;;;;5047949;28;19960;-79
2022/06/09 14:32:18;;;;;;;;;;;;;;;;;;5088528;28;19932;-81
2022/06/09 14:34:44;;;;;;;;;;;;;;;;;;5066931;28;20415;-80
2022/06/09 14:37:10;;;;;;;;;;;;;;;;;;5051795;28;20007;-80
2022/06/09 14:39:36;;;;;;;;;;;;;;;;;;5065857;28;19947;-81
2022/06/09 14:42:04;;;;;;;;;;;;;;;;;;5066275;28;20006;-80
2022/06/09 14:44:30;;;;;;;;;;;;;;;;;;5060592;28;20023;-80
2022/06/09 14:46:56;;;;;;;;;;;;;;;;;;5066983;28;20019;-81
2022/06/09 14:49:22;;;;;;;;;;;;;;;;;;5068474;28;19924;-80
2022/06/09 14:51:48;;;;;;;;;;;;;;;;;;5052248;28;20001;-80
2022/06/09 14:54:14;;;;;;;;;;;;;;;;;;5063893;28;20023;-79
2022/06/09 14:56:41;;;;;;;;;;;;;;;;;;5053124;28;19968;-80
2022/06/09 14:59:07;;;;;;;;;;;;;;;;;;5066849;28;20298;-80
2022/06/09 15:01:33;;;;;;;;;;;;;;;;;;5087867;28;20026;-80
2022/06/09 15:03:59;;;;;;;;;;;;;;;;;;5067155;28;20440;-78
2022/06/09 15:06:25;;;;;;;;;;;;;;;;;;5052163;28;20376;-81
2022/06/09 15:08:51;;;;;;;;;;;;;;;;;;5065877;28;19924;-79
2022/06/09 15:11:19;;;;;;;;;;;;;;;;;;5068235;28;20007;-81
2022/06/09 15:13:44;;;;;;;;;;;;;;;;;;5061455;28;20363;-83
2022/06/09 15:16:10;;;;;;;;;;;;;;;;;;5060505;28;19960;-79
2022/06/09 15:18:36;;;;;;;;;;;;;;;;;;5059524;28;20385;-79
2022/06/09 15:21:02;;;;;;;;;;;;;;;;;;5057729;28;19929;-80
2022/06/09 15:23:28;;;;;;;;;;;;;;;;;;5055114;28;19924;-79
2022/06/09 15:25:55;;;;;;;;;;;;;;;;;;5070501;28;19925;-79
2022/06/09 15:28:20;;;;;;;;;;;;;;;;;;5076140;28;19993;-79
2022/06/09 15:30:46;;;;;;;;;;;;;;;;;;5089055;28;20374;-79
2022/06/09 15:33:12;;;;;;;;;;;;;;;;;;5060135;28;19924;-79
2022/06/09 15:35:38;;;;;;;;;;;;;;;;;;5060708;28;19924;-79
2022/06/09 15:38:04;;;;;;;;;;;;;;;;;;5059155;28;19931;-78
2022/06/09 15:40:30;;;;;;;;;;;;;;;;;;5071654;28;19936;-79
2022/06/09 15:42:58;;;;;;;;;;;;;;;;;;5069630;28;19924;-78
2022/06/09 15:45:24;;;;;;;;;;;;;;;;;;5055743;28;19924;-81
2022/06/09 15:47:50;;;;;;;;;;;;;;;;;;5055156;28;19925;-79
2022/06/09 15:50:16;;;;;;;;;;;;;;;;;;5074442;28;19930;-79
2022/06/09 15:52:42;;;;;;;;;;;;;;;;;;5061640;28;19946;-80
2022/06/09 15:55:08;;;;;;;;;;;;;;;;;;5072463;28;19989;-79
2022/06/09 15:57:34;;;;;;;;;;;;;;;;;;5053868;28;19920;-79
2022/06/09 16:00:00;;;;;;;;;;;;;;;;;;5057792;28;19924;-79
2022/06/09 16:02:26;;;;;;;;;;;;;;;;;;5069950;28;20371;-81
2022/06/09 16:04:52;;;;;;;;;;;;;;;;;;5054825;28;20267;-79
2022/06/09 16:07:18;;;;;;;;;;;;;;;;;;5054119;28;19935;-80
2022/06/09 16:09:44;;;;;;;;;;;;;;;;;;5038903;28;19928;-79
2022/06/09 16:12:10;;;;;;;;;;;;;;;;;;5052961;28;19924;-80
2022/06/09 16:14:36;;;;;;;;;;;;;;;;;;5060309;28;19924;-80
2022/06/09 16:17:02;;;;;;;;;;;;;;;;;;5068379;28;19924;-83
2022/06/09 16:19:28;;;;;;;;;;;;;;;;;;5067308;28;19932;-80
2022/06/09 16:21:54;;;;;;;;;;;;;;;;;;5050588;28;19994;-82
2022/06/09 16:24:20;;;;;;;;;;;;;;;;;;5055906;28;19956;-80
2022/06/09 16:26:46;;;;;;;;;;;;;;;;;;5068045;28;19994;-81
2022/06/09 16:29:12;;;;;;;;;;;;;;;;;;5065331;28;19931;-80
2022/06/09 16:31:38;;;;;;;;;;;;;;;;;;5049624;28;20015;-82
2022/06/09 16:34:04;;;;;;;;;;;;;;;;;;5039037;28;20291;-82
2022/06/09 16:36:30;;;;;;;;;;;;;;;;;;5072692;28;19924;-81
2022/06/09 16:38:55;;;;;;;;;;;;;;;;;;5075746;28;19935;-78
2022/06/09 16:41:22;;;;;;;;;;;;;;;;;;5065755;28;19924;-77
2022/06/09 16:43:48;;;;;;;;;;;;;;;;;;5070424;28;20030;-78
2022/06/09 16:46:14;;;;;;;;;;;;;;;;;;5055666;28;19924;-78
2022/06/09 16:48:40;;;;;;;;;;;;;;;;;;5053132;28;19925;-76
2022/06/09 16:51:05;;;;;;;;;;;;;;;;;;5055079;28;20402;-77
2022/06/09 16:53:31;;;;;;;;;;;;;;;;;;5068281;28;20326;-80
2022/06/09 16:55:57;;;;;;;;;;;;;;;;;;5042694;28;20276;-80
2022/06/09 16:58:23;;;;;;;;;;;;;;;;;;5050223;28;19924;-78
2022/06/09 17:00:50;;;;;;;;;;;;;;;;;;5069340;28;19924;-77
2022/06/09 17:03:16;;;;;;;;;;;;;;;;;;5090142;28;19924;-80
2022/06/09 17:05:42;;;;;;;;;;;;;;;;;;5038979;28;19925;-75